Time;durP1;ratioP1;P1;durP2;ratioP2;P2;SDS_P1;SDS_P2;PMS_P1;PMS_P2;Temp;Humidity;BMP_temperature;BMP_pressure;BME280_temperature;BME280_humidity;BME280_pressure;Samples;Min_cycle;Max_cycle;Signal;HPM_P1;HPM_P2
2023/06/20 00:01:44;;;;;;;4.40;2.70;;;;;;;20.12;41.46;99220.59;82067;1295;3011167;-68
2023/06/20 00:04:13;;;;;;;4.20;2.50;;;;;;;20.08;41.43;99221.45;80817;1294;3050834;-68
2023/06/20 00:06:44;;;;;;;6.70;2.70;;;;;;;20.03;41.58;99221.95;82036;1295;3012719;-67
2023/06/20 00:09:12;;;;;;;6.30;2.80;;;;;;;19.99;41.70;99223.91;80825;1294;3053706;-68
2023/06/20 00:11:42;;;;;;;5.40;2.90;;;;;;;19.97;41.61;99226.30;82080;1293;3011023;-68
2023/06/20 00:14:19;;;;;;;13.10;2.80;;;;;;;19.93;41.67;99220.52;80751;1295;3052560;-67
2023/06/20 00:16:59;;;;;;;4.60;2.50;;;;;;;19.90;41.72;99218.93;80863;1294;3068170;-67
2023/06/20 00:19:36;;;;;;;5.00;2.90;;;;;;;19.88;41.73;99217.63;80801;1298;3052217;-67
2023/06/20 00:22:05;;;;;;;12.40;3.90;;;;;;;19.83;41.98;99223.46;82003;1294;3011140;-68
2023/06/20 00:24:49;;;;;;;9.80;2.90;;;;;;;19.79;42.33;99216.19;80861;1294;3050016;-67
2023/06/20 00:27:20;;;;;;;5.10;2.50;;;;;;;19.76;42.56;99216.34;80772;1295;3052438;-68
2023/06/20 00:29:52;;;;;;;7.00;2.80;;;;;;;19.75;42.13;99211.80;82009;1294;3011431;-68
2023/06/20 00:32:24;;;;;;;6.40;3.00;;;;;;;19.71;42.57;99217.34;80824;1293;3052594;-68
2023/06/20 00:35:03;;;;;;;4.70;3.00;;;;;;;19.66;42.72;99212.95;82048;1297;3011108;-67
2023/06/20 00:37:38;;;;;;;8.80;3.30;;;;;;;19.64;42.75;99208.50;80783;1294;3069438;-68
2023/06/20 00:40:14;;;;;;;6.70;3.00;;;;;;;19.60;42.47;99208.68;80787;1294;3051517;-68
2023/06/20 00:42:43;;;;;;;8.00;3.10;;;;;;;19.56;42.52;99207.84;82027;1294;3011456;-67
2023/06/20 00:45:34;;;;;;;8.70;3.00;;;;;;;19.55;42.58;99211.17;80716;1294;3049476;-68
2023/06/20 00:48:15;;;;;;;6.80;2.80;;;;;;;19.53;42.29;99213.33;80844;1294;3053340;-68
2023/06/20 00:51:43;;;;;;;5.90;2.80;;;;;;;19.47;42.48;99212.88;80772;1295;3049736;-68
2023/06/20 00:54:40;;;;;;;5.70;2.70;;;;;;;19.36;42.88;99214.33;80731;1297;3052293;-68
2023/06/20 00:57:22;;;;;;;5.70;2.90;;;;;;;19.28;43.17;99213.87;80834;1295;3052062;-68
2023/06/20 01:00:03;;;;;;;6.50;2.80;;;;;;;19.21;43.51;99213.16;80851;1295;3069405;-69
2023/06/20 01:02:51;;;;;;;7.50;2.80;;;;;;;19.14;44.06;99214.77;80688;1293;3050951;-68
2023/06/20 01:05:34;;;;;;;10.90;3.10;;;;;;;19.10;43.72;99215.73;80729;1295;3056391;-67
2023/06/20 01:09:22;;;;;;;7.20;3.10;;;;;;;19.10;43.71;99218.33;80711;1294;3048395;-67
2023/06/20 01:12:26;;;;;;;6.40;3.00;;;;;;;19.07;43.75;99221.66;80288;1301;3053565;-67
2023/06/20 01:15:46;;;;;;;5.40;2.80;;;;;;;19.06;43.40;99223.48;80724;1295;3050462;-67
2023/06/20 01:18:44;;;;;;;6.90;3.70;;;;;;;19.08;43.65;99227.58;80697;1300;3053119;-69
2023/06/20 01:21:37;;;;;;;5.40;3.20;;;;;;;19.04;43.90;99228.56;80774;1295;3052303;-67
2023/06/20 01:24:32;;;;;;;4.40;3.10;;;;;;;18.99;44.16;99228.02;80667;1293;3069183;-67
2023/06/20 01:27:32;;;;;;;6.80;3.20;;;;;;;18.99;44.26;99228.55;80597;1295;3050725;-67
2023/06/20 01:34:39;;;;;;;10.20;3.40;;;;;;;18.92;44.33;99232.94;80364;1301;3048641;-68
2023/06/20 01:37:32;;;;;;;5.30;3.20;;;;;;;18.86;44.71;99231.69;80368;1294;3053918;-68
2023/06/20 01:40:36;;;;;;;8.90;3.50;;;;;;;18.85;44.52;99233.27;80714;1295;3049353;-67
2023/06/20 01:47:02;;;;;;;9.30;4.40;;;;;;;18.83;44.55;99235.88;80613;1293;3052100;-67
2023/06/20 01:49:48;;;;;;;11.20;4.10;;;;;;;18.85;44.42;99232.05;80755;1294;3069688;-67
2023/06/20 01:52:31;;;;;;;8.50;4.50;;;;;;;18.83;44.64;99233.79;80801;1294;3051651;-67
2023/06/20 01:55:21;;;;;;;10.60;4.10;;;;;;;18.84;44.79;99227.89;80761;1294;3056129;-67
2023/06/20 01:57:58;;;;;;;10.20;4.60;;;;;;;18.83;44.40;99229.67;80763;1293;3049156;-69
2023/06/20 02:00:34;;;;;;;8.70;4.60;;;;;;;18.87;44.23;99227.95;80719;1295;3052458;-67
2023/06/20 02:03:07;;;;;;;8.80;4.10;;;;;;;18.92;44.04;99230.98;82102;1294;3011361;-68
2023/06/20 02:05:44;;;;;;;9.40;4.40;;;;;;;18.91;44.38;99234.23;80636;1297;3052270;-67
2023/06/20 02:08:12;;;;;;;7.60;4.70;;;;;;;18.89;44.22;99229.27;81949;1297;3012574;-67
2023/06/20 02:10:39;;;;;;;7.50;4.70;;;;;;;18.90;44.63;99225.48;82060;1294;3012739;-67
2023/06/20 02:13:07;;;;;;;6.90;4.30;;;;;;;18.91;44.54;99226.92;80810;1294;3055438;-67
2023/06/20 02:15:34;;;;;;;7.60;4.20;;;;;;;18.90;44.90;99222.13;81996;1295;3012905;-67
2023/06/20 02:18:02;;;;;;;9.40;4.90;;;;;;;18.97;44.30;99226.57;82089;1294;3011500;-67
2023/06/20 02:20:31;;;;;;;13.30;4.80;;;;;;;19.09;44.03;99228.17;80759;1294;3052558;-68
2023/06/20 02:22:59;;;;;;;8.00;4.20;;;;;;;19.18;43.70;99229.52;82157;1293;3012170;-68
2023/06/20 02:25:34;;;;;;;10.10;4.20;;;;;;;19.22;43.52;99226.24;82006;1294;3011403;-69
2023/06/20 02:28:02;;;;;;;11.10;4.30;;;;;;;19.24;43.15;99225.14;80668;1294;3056218;-68
2023/06/20 02:30:30;;;;;;;6.80;4.40;;;;;;;19.24;43.62;99228.89;81918;1296;3012841;-68
2023/06/20 02:32:58;;;;;;;6.70;4.00;;;;;;;19.23;43.65;99229.29;81961;1294;3011422;-68
2023/06/20 02:35:26;;;;;;;8.20;4.60;;;;;;;19.21;43.81;99230.96;80778;1295;3051943;-67
2023/06/20 02:37:54;;;;;;;8.60;4.30;;;;;;;19.18;44.27;99233.20;82052;1295;3012731;-67
2023/06/20 02:40:23;;;;;;;10.80;4.70;;;;;;;19.17;44.41;99234.90;82141;1294;3010968;-67
2023/06/20 02:42:53;;;;;;;10.30;4.50;;;;;;;19.16;44.60;99234.09;80744;1295;3055844;-68
2023/06/20 02:45:21;;;;;;;8.80;4.80;;;;;;;19.17;44.85;99229.43;82118;1294;3012628;-67
2023/06/20 02:48:26;;;;;;;7.50;4.20;;;;;;;19.20;44.77;99231.19;82111;1295;3011220;-68
2023/06/20 02:51:15;;;;;;;7.70;4.30;;;;;;;19.22;45.20;99229.89;80703;1297;3051925;-67
2023/06/20 02:54:04;;;;;;;9.10;4.20;;;;;;;19.22;45.34;99232.23;80667;1297;3052435;-67
2023/06/20 02:56:33;;;;;;;8.40;4.40;;;;;;;19.23;45.39;99228.05;80675;1294;3068961;-68
2023/06/20 02:59:00;;;;;;;10.30;4.20;;;;;;;19.22;45.81;99231.58;82132;1294;3013053;-68
2023/06/20 03:01:27;;;;;;;9.90;4.00;;;;;;;19.22;45.64;99234.73;81871;1294;3011420;-67
2023/06/20 03:03:56;;;;;;;9.60;4.30;;;;;;;19.24;45.60;99236.82;80816;1294;3051852;-67
2023/06/20 03:06:27;;;;;;;11.80;4.30;;;;;;;19.27;45.96;99238.64;81906;1300;3012722;-67
2023/06/20 03:08:58;;;;;;;10.30;4.30;;;;;;;19.27;46.08;99238.10;80753;1298;3053569;-67
2023/06/20 03:11:25;;;;;;;7.60;4.00;;;;;;;19.28;46.24;99238.73;82028;1295;3011251;-67
2023/06/20 03:13:54;;;;;;;9.00;4.00;;;;;;;19.31;46.25;99240.47;81460;1294;3011195;-66
2023/06/20 03:16:24;;;;;;;6.80;4.40;;;;;;;19.33;46.55;99243.21;82083;1294;3019045;-67
2023/06/20 03:18:54;;;;;;;11.30;3.80;;;;;;;19.35;46.78;99243.69;81460;1294;3011321;-67
2023/06/20 03:21:21;;;;;;;8.00;3.80;;;;;;;19.38;46.68;99248.59;82084;1294;3012840;-67
2023/06/20 03:23:48;;;;;;;8.30;4.60;;;;;;;19.45;46.56;99248.95;82034;1295;3011216;-67
2023/06/20 03:26:17;;;;;;;5.30;3.50;;;;;;;19.47;46.40;99248.23;80742;1295;3051953;-67
2023/06/20 03:28:45;;;;;;;10.30;3.60;;;;;;;19.53;46.45;99254.69;82137;1294;3013598;-68
2023/06/20 03:31:12;;;;;;;10.00;4.30;;;;;;;19.58;46.36;99253.17;82017;1293;3011393;-68
2023/06/20 03:33:40;;;;;;;7.30;3.80;;;;;;;19.60;46.56;99259.67;80740;1294;3049588;-68
2023/06/20 03:36:09;;;;;;;8.40;4.10;;;;;;;19.63;47.04;99259.91;82055;1298;3012925;-68
2023/06/20 03:38:39;;;;;;;8.30;3.60;;;;;;;19.64;47.28;99263.54;80730;1297;3052496;-68
2023/06/20 03:41:06;;;;;;;11.20;4.20;;;;;;;19.69;47.40;99261.77;82015;1295;3011108;-68
2023/06/20 03:43:33;;;;;;;14.20;4.80;;;;;;;19.74;47.17;99261.80;81947;1294;3011228;-67
2023/06/20 03:46:01;;;;;;;12.10;4.40;;;;;;;19.75;47.47;99260.84;80787;1294;3055808;-67
2023/06/20 03:48:29;;;;;;;11.30;4.00;;;;;;;19.78;47.74;99266.23;81959;1297;3013007;-67
2023/06/20 03:50:56;;;;;;;10.40;4.30;;;;;;;19.83;47.22;99267.11;81956;1296;3011084;-67
2023/06/20 03:53:25;;;;;;;11.60;4.00;;;;;;;19.87;46.74;99268.52;80678;1300;3050755;-68
2023/06/20 03:55:52;;;;;;;15.60;4.60;;;;;;;19.94;46.27;99272.26;81950;1296;3013790;-68
2023/06/20 03:58:19;;;;;;;14.10;4.10;;;;;;;19.97;46.95;99275.52;81989;1296;3011238;-67
2023/06/20 04:00:48;;;;;;;11.00;4.10;;;;;;;20.00;46.86;99279.80;80742;1294;3026335;-67
2023/06/20 04:03:15;;;;;;;10.80;4.20;;;;;;;20.07;46.18;99286.55;82001;1294;3011355;-67
2023/06/20 04:05:41;;;;;;;13.50;4.30;;;;;;;20.10;45.86;99287.29;82025;1294;3011344;-68
2023/06/20 04:08:11;;;;;;;12.00;4.10;;;;;;;20.17;45.77;99288.98;80664;1300;3052208;-68
2023/06/20 04:10:38;;;;;;;10.50;4.20;;;;;;;20.24;45.59;99283.79;82006;1296;3011220;-67
2023/06/20 04:13:04;;;;;;;14.10;4.10;;;;;;;20.29;45.41;99281.64;81999;1294;3011420;-67
2023/06/20 04:15:32;;;;;;;18.60;4.70;;;;;;;20.33;45.63;99279.99;80688;1294;3026192;-67
2023/06/20 04:17:59;;;;;;;19.40;6.90;;;;;;;20.39;45.80;99284.92;82001;1294;3012288;-67
2023/06/20 04:20:26;;;;;;;30.00;6.70;;;;;;;20.46;45.80;99283.81;81916;1294;3011598;-67
2023/06/20 04:22:54;;;;;;;18.10;5.10;;;;;;;20.52;45.62;99284.54;80689;1300;3027492;-67
2023/06/20 04:25:21;;;;;;;20.40;4.80;;;;;;;20.57;45.73;99285.41;81943;1297;3018529;-66
2023/06/20 04:27:53;;;;;;;27.10;4.80;;;;;;;20.64;45.91;99288.16;82055;1295;3011119;-67
2023/06/20 04:30:22;;;;;;;18.90;4.80;;;;;;;20.68;45.63;99290.46;80714;1294;3054899;-67
2023/06/20 04:32:53;;;;;;;16.30;5.00;;;;;;;20.76;45.03;99295.58;81973;1295;3011453;-67
2023/06/20 04:35:21;;;;;;;20.70;4.40;;;;;;;20.82;44.55;99295.86;80673;1296;3049284;-67
2023/06/20 04:37:56;;;;;;;14.60;4.50;;;;;;;20.87;44.75;99300.30;81998;1299;3012771;-68
2023/06/20 04:40:26;;;;;;;21.20;4.60;;;;;;;20.94;44.63;99308.63;80706;1295;3068894;-67
2023/06/20 04:42:53;;;;;;;16.80;4.80;;;;;;;21.02;44.58;99316.75;81934;1295;3011380;-67
2023/06/20 04:45:19;;;;;;;33.60;6.30;;;;;;;21.10;44.34;99321.71;81994;1294;3011387;-66
2023/06/20 04:47:50;;;;;;;42.10;7.10;;;;;;;21.20;43.87;99321.94;80694;1294;3052636;-67
2023/06/20 04:50:17;;;;;;;33.40;6.20;;;;;;;21.31;43.49;99328.39;81940;1300;3012702;-69
2023/06/20 04:52:44;;;;;;;34.60;6.50;;;;;;;21.40;43.33;99325.67;81981;1295;3011307;-68
2023/06/20 04:55:12;;;;;;;38.10;7.00;;;;;;;21.46;43.43;99325.90;80796;1294;3070608;-68
2023/06/20 04:57:40;;;;;;;35.50;6.00;;;;;;;21.54;42.90;99325.77;82038;1295;3012957;-67
2023/06/20 05:00:09;;;;;;;33.10;6.40;;;;;;;21.62;42.91;99330.23;82009;1294;3011333;-68
2023/06/20 05:02:42;;;;;;;40.50;7.00;;;;;;;21.71;42.92;99329.80;80695;1294;3053233;-67
2023/06/20 05:05:09;;;;;;;33.40;6.70;;;;;;;21.79;42.95;99327.45;81986;1294;3011292;-67
2023/06/20 05:07:41;;;;;;;37.00;7.80;;;;;;;21.87;42.76;99328.94;80745;1295;3052641;-67
2023/06/20 05:10:08;;;;;;;47.10;7.40;;;;;;;21.96;42.66;99324.71;81910;1297;3011303;-67
2023/06/20 05:12:36;;;;;;;47.50;7.70;;;;;;;22.05;42.55;99327.44;80772;1294;3067964;-68
2023/06/20 05:15:04;;;;;;;46.80;7.20;;;;;;;22.17;42.09;99324.52;81977;1296;3011234;-67
2023/06/20 05:17:32;;;;;;;22.10;5.40;;;;;;;22.27;41.23;99326.11;81980;1294;3011151;-67
2023/06/20 05:20:05;;;;;;;26.90;4.60;;;;;;;22.37;41.09;99326.86;80744;1294;3054538;-68
2023/06/20 05:22:35;;;;;;;20.50;4.70;;;;;;;22.48;41.33;99329.73;82009;1294;3011303;-67
2023/06/20 05:25:04;;;;;;;20.20;3.90;;;;;;;22.53;41.46;99335.70;80761;1295;3053097;-68
2023/06/20 05:27:31;;;;;;;15.30;3.20;;;;;;;22.58;40.71;99335.68;82043;1296;3013621;-67
2023/06/20 05:29:59;;;;;;;12.50;2.40;;;;;;;22.65;39.88;99335.08;82005;1296;3010960;-67
2023/06/20 05:32:27;;;;;;;5.50;1.80;;;;;;;22.73;39.64;99341.46;80761;1294;3055387;-67
2023/06/20 05:34:54;;;;;;;6.30;2.20;;;;;;;22.83;39.29;99340.38;82003;1294;3012667;-68
2023/06/20 05:37:21;;;;;;;8.60;1.90;;;;;;;22.93;39.48;99341.36;81992;1295;3011347;-68
2023/06/20 05:39:49;;;;;;;8.20;2.30;;;;;;;23.02;39.08;99337.66;80855;1295;3025615;-66
2023/06/20 05:42:17;;;;;;;7.10;1.80;;;;;;;23.09;38.76;99338.50;82057;1294;3018273;-67
2023/06/20 05:44:45;;;;;;;6.30;1.80;;;;;;;23.16;39.14;99336.66;81981;1296;3011300;-67
2023/06/20 05:47:17;;;;;;;5.60;1.80;;;;;;;23.22;38.89;99333.08;80742;1294;3057409;-67
2023/06/20 05:49:48;;;;;;;7.20;2.10;;;;;;;23.28;38.96;99332.55;82000;1298;3011254;-67
2023/06/20 05:52:26;;;;;;;3.20;2.00;;;;;;;23.34;38.85;99332.54;80865;1295;3052510;-67
2023/06/20 05:55:03;;;;;;;5.00;2.10;;;;;;;23.42;38.64;99330.60;80800;1294;3050960;-67
2023/06/20 05:57:30;;;;;;;5.70;1.90;;;;;;;23.49;38.86;99328.69;80050;1295;3012517;-67
2023/06/20 05:59:57;;;;;;;6.70;2.10;;;;;;;23.58;38.98;99327.83;82068;1297;3011371;-67
2023/06/20 06:02:26;;;;;;;4.90;2.10;;;;;;;23.67;38.76;99323.94;80878;1294;3051950;-67
2023/06/20 06:04:53;;;;;;;8.10;2.40;;;;;;;23.73;38.93;99324.66;82067;1294;3012578;-68
2023/06/20 06:07:21;;;;;;;9.10;1.90;;;;;;;23.76;38.66;99325.30;82013;1294;3011362;-67
2023/06/20 06:09:49;;;;;;;9.90;2.30;;;;;;;23.82;38.13;99322.48;80807;1294;3048166;-67
2023/06/20 06:12:17;;;;;;;4.40;2.10;;;;;;;23.92;37.13;99322.65;81987;1299;3011499;-67
2023/06/20 06:14:44;;;;;;;5.40;1.40;;;;;;;24.00;36.73;99320.55;81987;1299;3011019;-67
2023/06/20 06:17:14;;;;;;;4.50;1.70;;;;;;;24.07;35.83;99322.23;80715;1295;3050221;-67
2023/06/20 06:19:44;;;;;;;;;;;;;;;24.06;34.46;99318.95;81984;1294;3011265;-68
2023/06/20 06:22:13;;;;;;;3.70;2.00;;;;;;;24.07;34.82;99319.90;80787;1294;3048641;-66
2023/06/20 06:24:40;;;;;;;2.20;1.60;;;;;;;24.12;34.63;99325.52;81962;1294;3012650;-67
2023/06/20 06:27:07;;;;;;;5.60;1.70;;;;;;;24.24;34.33;99317.84;82018;1295;3011008;-67
2023/06/20 06:29:36;;;;;;;4.80;1.50;;;;;;;24.28;34.33;99318.52;80745;1297;3053424;-67
2023/06/20 06:32:03;;;;;;;5.00;2.10;;;;;;;24.39;34.59;99322.94;82065;1295;3012686;-67
2023/06/20 06:34:30;;;;;;;4.20;1.80;;;;;;;24.48;34.00;99322.48;82021;1294;3011244;-66
2023/06/20 06:37:02;;;;;;;7.50;2.50;;;;;;;24.55;34.36;99324.32;80802;1294;3046914;-67
2023/06/20 06:39:29;;;;;;;10.70;2.10;;;;;;;24.64;33.96;99325.08;82076;1295;3011307;-68
2023/06/20 06:42:01;;;;;;;6.40;2.30;;;;;;;24.71;33.24;99327.44;80770;1299;3026392;-68
2023/06/20 06:44:28;;;;;;;10.00;2.30;;;;;;;24.77;32.95;99330.52;82073;1294;3011237;-67
2023/06/20 06:47:00;;;;;;;6.60;3.30;;;;;;;24.87;33.24;99331.03;80820;1298;3053133;-69
2023/06/20 06:49:28;;;;;;;7.00;2.60;;;;;;;24.98;32.73;99336.66;82059;1295;3011201;-68
2023/06/20 06:51:57;;;;;;;5.60;2.20;;;;;;;25.05;31.86;99333.88;81635;1295;3011285;-67
2023/06/20 06:54:24;;;;;;;9.40;3.00;;;;;;;25.10;32.03;99335.95;82116;1294;3011129;-67
2023/06/20 06:56:52;;;;;;;6.90;3.40;;;;;;;25.18;30.67;99333.55;82064;1295;3011271;-67
2023/06/20 06:59:20;;;;;;;9.70;3.50;;;;;;;25.24;30.81;99331.67;80796;1294;3049933;-67
2023/06/20 07:01:47;;;;;;;4.80;3.10;;;;;;;25.23;30.41;99334.28;82136;1298;3013257;-67
2023/06/20 07:04:14;;;;;;;8.60;3.70;;;;;;;25.32;30.74;99332.84;82028;1297;3011447;-67
2023/06/20 07:06:43;;;;;;;9.80;3.80;;;;;;;25.42;30.54;99334.48;80808;1294;3050551;-67
2023/06/20 07:09:11;;;;;;;9.10;3.70;;;;;;;25.49;29.99;99336.27;82072;1294;3012834;-67
2023/06/20 07:11:40;;;;;;;7.00;3.70;;;;;;;25.54;30.28;99338.19;82154;1295;3011383;-67
2023/06/20 07:14:09;;;;;;;4.50;3.50;;;;;;;25.60;30.56;99338.69;80766;1295;3048669;-67
2023/06/20 07:16:36;;;;;;;5.80;3.90;;;;;;;25.67;30.48;99341.73;82084;1298;3013125;-67
2023/06/20 07:21:41;;;;;;;6.90;4.20;;;;;;;25.75;30.14;99333.96;80505;1295;3011798;-67
2023/06/20 07:24:08;;;;;;;7.30;3.30;;;;;;;25.79;30.06;99332.84;79884;1308;3013152;-66
2023/06/20 07:26:35;;;;;;;5.20;3.10;;;;;;;25.86;29.02;99328.13;79703;1293;3011667;-66
2023/06/20 07:29:03;;;;;;;8.20;3.10;;;;;;;25.85;29.39;99326.01;78455;1297;3052384;-66
2023/06/20 07:31:30;;;;;;;6.10;2.90;;;;;;;25.90;29.83;99329.31;79938;1298;3013477;-65
2023/06/20 07:33:57;;;;;;;6.70;2.90;;;;;;;25.93;29.52;99324.66;77629;1298;3011616;-66
2023/06/20 07:36:25;;;;;;;4.90;2.30;;;;;;;25.97;29.36;99327.41;78646;1296;3025794;-65
2023/06/20 07:38:52;;;;;;;9.20;3.20;;;;;;;26.05;28.78;99324.56;80008;1292;3013417;-65
2023/06/20 07:41:28;;;;;;;5.50;2.50;;;;;;;26.10;28.76;99324.17;79700;1298;3012108;-65
2023/06/20 07:43:56;;;;;;;3.20;2.20;;;;;;;26.22;28.62;99329.67;78493;1301;3052954;-65
2023/06/20 07:46:24;;;;;;;7.80;2.50;;;;;;;26.23;28.26;99323.85;79867;1292;3013777;-65
2023/06/20 07:48:51;;;;;;;3.90;2.00;;;;;;;26.20;28.19;99324.90;79774;1298;3014146;-65
2023/06/20 07:51:20;;;;;;;5.20;2.00;;;;;;;26.22;28.07;99319.32;78582;1295;3049196;-66
2023/06/20 07:53:48;;;;;;;3.70;2.30;;;;;;;26.24;28.19;99320.77;79905;1305;3012853;-65
2023/06/20 07:56:15;;;;;;;5.70;2.40;;;;;;;26.15;28.24;99319.95;79759;1295;3011969;-66
2023/06/20 07:58:44;;;;;;;4.20;2.40;;;;;;;26.28;28.16;99321.95;78568;1305;3051888;-65
2023/06/20 08:01:12;;;;;;;5.60;2.30;;;;;;;26.36;27.79;99324.61;79764;1298;3013596;-65
2023/06/20 08:03:39;;;;;;;5.10;2.60;;;;;;;26.28;27.76;99325.02;79896;1298;3011471;-65
2023/06/20 08:06:09;;;;;;;5.50;2.70;;;;;;;26.37;27.46;99325.57;78653;1295;3048304;-65
2023/06/20 08:08:37;;;;;;;4.80;2.90;;;;;;;26.43;27.23;99325.44;79820;1295;3013826;-65
2023/06/20 08:11:06;;;;;;;7.60;2.90;;;;;;;26.42;26.85;99324.11;79155;1298;3011982;-65
2023/06/20 08:13:34;;;;;;;5.60;2.70;;;;;;;26.53;27.14;99323.60;79752;1298;3014786;-65
2023/06/20 08:16:01;;;;;;;4.70;2.70;;;;;;;26.55;27.04;99326.42;79767;1304;3011476;-64
2023/06/20 08:18:29;;;;;;;6.20;2.50;;;;;;;26.57;26.62;99320.19;78762;1292;3049975;-65
2023/06/20 08:20:56;;;;;;;4.00;2.40;;;;;;;26.65;26.70;99323.69;79870;1292;3014276;-66
2023/06/20 08:23:25;;;;;;;3.40;2.50;;;;;;;26.76;26.97;99321.89;79772;1292;3013384;-65
2023/06/20 08:25:56;;;;;;;6.10;2.20;;;;;;;26.84;26.50;99324.71;78506;1296;3050882;-65
2023/06/20 08:28:24;;;;;;;5.40;2.30;;;;;;;26.90;26.73;99321.53;79735;1292;3011639;-64
2023/06/20 08:30:52;;;;;;;4.20;2.30;;;;;;;26.90;27.50;99316.80;78422;1298;3027475;-65
2023/06/20 08:33:19;;;;;;;4.40;2.20;;;;;;;26.94;27.16;99318.48;79649;1297;3013567;-65
2023/06/20 08:35:46;;;;;;;3.90;2.20;;;;;;;27.02;27.29;99317.27;79633;1292;3011843;-65
2023/06/20 08:38:14;;;;;;;4.70;2.10;;;;;;;27.10;28.30;99318.22;78385;1297;3049560;-64
2023/06/20 08:40:41;;;;;;;9.20;2.40;;;;;;;27.17;28.77;99319.10;79658;1292;3013484;-62
2023/06/20 08:43:12;;;;;;;4.00;2.40;;;;;;;27.23;29.00;99320.43;79570;1295;3012796;-63
2023/06/20 08:45:42;;;;;;;7.70;2.10;;;;;;;27.25;28.27;99320.48;78312;1297;3051920;-66
2023/06/20 08:48:09;;;;;;;6.00;2.00;;;;;;;27.34;27.58;99318.75;79784;1295;3018884;-64
2023/06/20 08:50:37;;;;;;;6.10;2.00;;;;;;;27.42;27.10;99322.44;79748;1298;3011780;-65
2023/06/20 08:53:06;;;;;;;3.70;2.00;;;;;;;27.54;27.22;99318.66;78500;1292;3048680;-65
2023/06/20 08:55:33;;;;;;;3.40;2.10;;;;;;;27.62;26.70;99313.64;79620;1295;3013471;-65
2023/06/20 08:58:00;;;;;;;6.50;2.40;;;;;;;27.60;26.70;99310.48;79673;1298;3011869;-64
2023/06/20 09:00:30;;;;;;;3.60;2.20;;;;;;;27.50;27.03;99311.94;78381;1297;3052195;-63
2023/06/20 09:02:56;;;;;;;4.40;1.70;;;;;;;27.60;26.80;99314.35;79664;1295;3013303;-63
2023/06/20 09:05:23;;;;;;;7.10;2.00;;;;;;;27.68;27.05;99313.39;79524;1297;3013612;-64
2023/06/20 09:07:51;;;;;;;5.60;2.10;;;;;;;27.75;26.98;99317.52;78365;1295;3048867;-64
2023/06/20 09:10:18;;;;;;;8.60;2.00;;;;;;;27.84;26.51;99313.00;79764;1292;3013153;-65
2023/06/20 09:13:03;;;;;;;3.60;1.90;;;;;;;27.88;26.19;99311.58;79611;1292;3011487;-66
2023/06/20 09:15:33;;;;;;;5.10;2.00;;;;;;;27.89;25.80;99313.90;78261;1295;3053572;-67
2023/06/20 09:18:01;;;;;;;3.50;1.80;;;;;;;27.97;25.94;99312.69;79906;1297;3012827;-65
2023/06/20 09:20:31;;;;;;;3.60;2.10;;;;;;;28.02;26.41;99312.28;79251;1297;3011610;-68
2023/06/20 09:22:58;;;;;;;3.10;1.80;;;;;;;28.11;26.76;99312.85;80098;1292;3013503;-67
2023/06/20 09:25:26;;;;;;;5.40;1.80;;;;;;;28.22;26.55;99309.38;80084;1292;3011833;-71
2023/06/20 09:27:55;;;;;;;5.90;1.90;;;;;;;28.39;26.44;99308.16;78610;1298;3048980;-67
2023/06/20 09:30:22;;;;;;;3.10;1.90;;;;;;;28.49;26.39;99305.92;79987;1295;3012663;-66
2023/06/20 09:32:49;;;;;;;4.30;2.10;;;;;;;28.63;25.96;99310.29;79997;1297;3011752;-66
2023/06/20 09:35:17;;;;;;;2.90;1.80;;;;;;;28.69;26.28;99312.67;78629;1292;3027095;-66
2023/06/20 09:37:45;;;;;;;4.10;2.10;;;;;;;28.70;26.39;99311.34;80026;1292;3015302;-66
2023/06/20 09:40:13;;;;;;;7.30;2.30;;;;;;;28.75;26.61;99310.19;79901;1293;3011892;-65
2023/06/20 09:42:43;;;;;;;6.10;1.90;;;;;;;28.78;26.34;99305.69;78668;1295;3053590;-66
2023/06/20 09:45:11;;;;;;;3.30;1.80;;;;;;;28.87;26.06;99307.63;82208;1292;3011345;-66
2023/06/20 09:47:41;;;;;;;5.10;1.80;;;;;;;29.04;25.70;99311.73;81703;1292;3011387;-66
2023/06/20 09:50:19;;;;;;;3.20;1.80;;;;;;;29.18;25.58;99308.73;82282;1291;3012642;-67
2023/06/20 09:53:19;;;;;;;5.20;2.00;;;;;;;29.31;25.38;99304.21;80983;1292;3056307;-66
2023/06/20 09:55:47;;;;;;;4.40;1.70;;;;;;;29.35;25.15;99302.98;80906;1292;3047658;-67
2023/06/20 09:58:15;;;;;;;3.90;1.90;;;;;;;29.37;25.25;99302.13;82114;1292;3012447;-67
2023/06/20 10:00:41;;;;;;;4.60;1.80;;;;;;;29.46;25.17;99299.30;82077;1298;3011249;-66
2023/06/20 10:03:09;;;;;;;2.00;1.60;;;;;;;29.53;24.99;99301.24;80906;1294;3051538;-67
2023/06/20 10:05:36;;;;;;;3.00;1.90;;;;;;;29.61;24.95;99293.71;82224;1293;3012782;-66
2023/06/20 10:08:03;;;;;;;4.80;2.20;;;;;;;29.58;24.86;99294.41;82223;1292;3011810;-65
2023/06/20 10:10:31;;;;;;;4.60;1.70;;;;;;;29.49;24.79;99294.86;80943;1291;3027531;-66
2023/06/20 10:12:57;;;;;;;3.10;1.80;;;;;;;29.60;25.03;99296.64;82230;1292;3012724;-66
2023/06/20 10:15:24;;;;;;;1.80;1.60;;;;;;;29.71;24.87;99295.34;82231;1292;3011028;-66
2023/06/20 10:17:51;;;;;;;4.70;1.90;;;;;;;29.78;24.27;99293.31;80956;1295;3026687;-66
2023/06/20 10:20:25;;;;;;;3.70;2.10;;;;;;;29.65;23.93;99290.52;82256;1292;3013077;-66
2023/06/20 10:22:59;;;;;;;6.60;1.60;;;;;;;29.67;24.33;99286.67;80963;1292;3055259;-66
2023/06/20 10:25:26;;;;;;;4.30;1.70;;;;;;;29.74;24.51;99289.73;82231;1292;3011212;-67
2023/06/20 10:27:58;;;;;;;2.80;1.80;;;;;;;29.82;24.62;99282.11;80959;1292;3052765;-67
2023/06/20 10:30:50;;;;;;;3.60;1.50;;;;;;;29.98;24.27;99289.52;82214;1292;3011047;-66
2023/06/20 10:33:24;;;;;;;6.90;2.20;;;;;;;30.03;23.72;99290.59;80991;1291;3054050;-66
2023/06/20 10:36:11;;;;;;;4.50;2.10;;;;;;;30.01;24.19;99288.69;82262;1291;3011107;-66
2023/06/20 10:38:51;;;;;;;6.30;2.00;;;;;;;29.91;24.35;99286.97;80990;1291;3068428;-66
2023/06/20 10:41:22;;;;;;;3.80;2.10;;;;;;;30.09;24.28;99282.41;80989;1292;3050139;-66
2023/06/20 10:43:59;;;;;;;3.30;2.50;;;;;;;30.17;24.65;99280.85;82225;1292;3011638;-66
2023/06/20 10:46:29;;;;;;;5.90;2.40;;;;;;;30.21;24.88;99282.92;80940;1292;3048974;-67
2023/06/20 10:48:56;;;;;;;3.00;2.10;;;;;;;30.20;24.92;99282.36;82246;1291;3011229;-65
2023/06/20 10:51:25;;;;;;;4.50;2.20;;;;;;;30.27;25.17;99278.27;81713;1292;3011374;-66
2023/06/20 10:53:52;;;;;;;3.60;2.20;;;;;;;30.34;24.75;99281.56;82280;1296;3012858;-67
2023/06/20 10:56:25;;;;;;;4.00;2.30;;;;;;;30.41;24.82;99281.39;82218;1294;3011249;-65
2023/06/20 10:58:53;;;;;;;2.90;1.90;;;;;;;30.52;24.75;99280.46;80985;1292;3051190;-66
2023/06/20 11:01:25;;;;;;;5.30;2.30;;;;;;;30.57;24.73;99280.72;82262;1291;3011007;-66
2023/06/20 11:03:53;;;;;;;3.20;2.30;;;;;;;30.60;24.58;99280.73;80976;1291;3052869;-66
2023/06/20 11:06:20;;;;;;;4.40;2.60;;;;;;;30.47;24.70;99278.98;82254;1291;3013222;-67
2023/06/20 11:08:46;;;;;;;3.50;2.40;;;;;;;30.51;25.14;99275.30;82215;1296;3011453;-66
2023/06/20 11:11:14;;;;;;;5.20;2.60;;;;;;;30.69;24.86;99273.52;80980;1291;3026616;-66
2023/06/20 11:13:43;;;;;;;7.40;2.80;;;;;;;30.81;24.55;99275.84;82291;1291;3012415;-66
2023/06/20 11:16:18;;;;;;;6.20;2.10;;;;;;;30.94;24.44;99271.02;81699;1291;3011144;-67
2023/06/20 11:18:45;;;;;;;3.90;2.30;;;;;;;30.87;24.33;99274.19;82207;1291;3011059;-65
2023/06/20 11:21:15;;;;;;;4.10;2.20;;;;;;;30.88;24.52;99268.86;80944;1292;3052274;-67
2023/06/20 11:23:42;;;;;;;4.60;2.50;;;;;;;31.03;24.66;99271.79;82243;1291;3012519;-66
2023/06/20 11:26:08;;;;;;;6.70;2.10;;;;;;;31.12;24.30;99265.44;82232;1292;3011125;-67
2023/06/20 11:28:37;;;;;;;3.00;2.30;;;;;;;31.19;24.31;99266.84;80985;1292;3068688;-66
2023/06/20 11:31:08;;;;;;;5.90;2.60;;;;;;;31.24;24.17;99259.95;82255;1292;3012760;-66
2023/06/20 11:33:36;;;;;;;4.00;2.30;;;;;;;31.26;24.49;99255.67;80946;1292;3048592;-66
2023/06/20 11:36:04;;;;;;;5.70;1.90;;;;;;;31.42;24.00;99255.86;82239;1291;3012976;-66
2023/06/20 11:38:31;;;;;;;3.70;2.20;;;;;;;31.41;24.08;99251.79;82250;1291;3011419;-66
2023/06/20 11:41:06;;;;;;;4.60;2.10;;;;;;;31.49;24.24;99253.61;80998;1291;3052548;-65
2023/06/20 11:43:38;;;;;;;9.00;2.30;;;;;;;31.54;23.86;99256.40;81636;1291;3010882;-67
2023/06/20 11:46:05;;;;;;;2.90;2.00;;;;;;;31.62;24.17;99255.03;82261;1291;3013253;-66